createdAt,value
2019-01-29T00:01:39.293Z,8.03
2019-01-29T00:04:08.476Z,8.33
2019-01-29T00:06:37.752Z,8.10
2019-01-29T00:09:09.955Z,7.90
2019-01-29T00:11:39.223Z,7.00
2019-01-29T00:14:08.471Z,7.90
2019-01-29T00:16:37.785Z,8.33
2019-01-29T00:19:07.154Z,9.50
2019-01-29T00:21:36.385Z,9.60
2019-01-29T00:24:05.830Z,8.43
2019-01-29T00:26:35.112Z,8.70
2019-01-29T00:29:04.451Z,10.20
2019-01-29T00:31:33.715Z,9.73
2019-01-29T00:34:02.974Z,8.17
2019-01-29T00:36:32.160Z,9.13
2019-01-29T00:39:01.434Z,8.80
2019-01-29T00:41:30.702Z,8.43
2019-01-29T00:43:59.922Z,8.93
2019-01-29T00:46:29.197Z,9.03
2019-01-29T00:48:58.485Z,9.37
2019-01-29T00:51:27.788Z,9.47
2019-01-29T00:53:57.148Z,8.50
2019-01-29T00:56:26.404Z,8.97
2019-01-29T00:58:55.723Z,8.40
2019-01-29T01:01:24.952Z,7.73
2019-01-29T01:03:54.244Z,7.90
2019-01-29T01:06:23.547Z,6.83
2019-01-29T01:08:52.984Z,6.70
2019-01-29T01:11:22.148Z,7.00
2019-01-29T01:13:51.449Z,6.97
2019-01-29T01:16:20.627Z,6.40
2019-01-29T01:18:49.788Z,6.60
2019-01-29T01:21:19.046Z,6.67
2019-01-29T01:23:48.212Z,6.50
2019-01-29T01:26:17.501Z,7.30
2019-01-29T01:28:46.786Z,5.97
2019-01-29T01:31:16.063Z,6.17
2019-01-29T01:33:45.291Z,6.80
2019-01-29T01:36:14.452Z,6.60
2019-01-29T01:38:44.138Z,7.40
2019-01-29T01:41:13.377Z,7.27
2019-01-29T01:43:42.561Z,6.53
2019-01-29T01:46:11.797Z,6.07
2019-01-29T01:48:41.051Z,6.30
2019-01-29T01:51:10.293Z,6.90
2019-01-29T01:56:08.777Z,6.67
2019-01-29T01:58:37.981Z,6.40
2019-01-29T02:01:07.144Z,5.90
2019-01-29T02:03:36.388Z,6.10
2019-01-29T02:06:05.697Z,6.07
2019-01-29T02:08:34.957Z,5.67
2019-01-29T02:11:04.269Z,5.87
2019-01-29T02:13:33.433Z,5.57
2019-01-29T02:16:02.683Z,5.13
2019-01-29T02:18:31.891Z,5.07
2019-01-29T02:21:01.062Z,5.27
2019-01-29T02:23:30.313Z,4.90
2019-01-29T02:25:59.587Z,5.00
2019-01-29T02:28:28.913Z,5.27
2019-01-29T02:30:58.129Z,5.53
2019-01-29T02:33:27.509Z,5.80
2019-01-29T02:35:56.655Z,5.53
2019-01-29T02:38:26.023Z,5.07
2019-01-29T02:40:55.267Z,5.23
2019-01-29T02:43:24.442Z,5.50
2019-01-29T02:45:53.700Z,4.53
2019-01-29T02:48:23.086Z,5.57
2019-01-29T02:50:52.235Z,5.93
2019-01-29T02:53:21.569Z,5.27
2019-01-29T02:55:50.756Z,5.03
2019-01-29T02:58:20.070Z,5.10
2019-01-29T03:00:49.323Z,5.23
2019-01-29T03:03:18.729Z,5.43
2019-01-29T03:05:47.989Z,5.00
2019-01-29T03:08:17.123Z,4.40
2019-01-29T03:10:46.345Z,5.03
2019-01-29T03:13:15.549Z,5.63
2019-01-29T03:15:44.767Z,5.93
2019-01-29T03:18:14.000Z,5.07
2019-01-29T03:20:43.368Z,5.47
2019-01-29T03:23:12.611Z,5.20
2019-01-29T03:25:41.793Z,5.73
2019-01-29T03:28:11.103Z,5.57
2019-01-29T03:30:40.430Z,5.77
2019-01-29T03:33:09.765Z,5.53
2019-01-29T03:35:39.013Z,5.60
2019-01-29T03:38:08.247Z,5.43
2019-01-29T03:40:37.514Z,5.70
2019-01-29T03:43:06.767Z,6.20
2019-01-29T03:45:35.993Z,6.07
2019-01-29T03:48:05.412Z,5.87
2019-01-29T03:50:34.695Z,5.80
2019-01-29T03:53:03.874Z,5.80
2019-01-29T03:55:33.167Z,6.07
2019-01-29T03:58:02.335Z,6.53
2019-01-29T04:00:31.535Z,5.90
2019-01-29T04:03:00.836Z,5.93
2019-01-29T04:05:30.074Z,6.90
2019-01-29T04:07:59.386Z,5.47
2019-01-29T04:10:28.755Z,6.27
2019-01-29T04:12:57.987Z,5.87
2019-01-29T04:15:27.251Z,6.30
2019-01-29T04:17:58.491Z,5.93
2019-01-29T04:20:28.079Z,6.77
2019-01-29T04:22:57.413Z,6.60
2019-01-29T04:25:26.793Z,7.20
2019-01-29T04:27:56.541Z,7.00
2019-01-29T04:30:25.751Z,7.23
2019-01-29T04:32:55.023Z,7.00
2019-01-29T04:35:24.218Z,7.67
2019-01-29T04:37:53.458Z,9.23
2019-01-29T04:40:22.695Z,8.60
2019-01-29T04:42:51.925Z,8.27
2019-01-29T04:45:21.208Z,7.13
2019-01-29T04:47:50.379Z,8.77
2019-01-29T04:50:21.553Z,9.00
2019-01-29T04:52:50.852Z,7.70
2019-01-29T04:55:20.229Z,8.10
2019-01-29T04:57:49.451Z,9.00
2019-01-29T05:00:21.025Z,8.00
2019-01-29T05:02:50.237Z,8.47
2019-01-29T05:05:20.311Z,8.40
2019-01-29T05:07:49.526Z,9.50
2019-01-29T05:10:18.998Z,9.00
2019-01-29T05:12:48.223Z,8.00
2019-01-29T05:15:17.597Z,9.67
2019-01-29T05:17:46.755Z,9.97
2019-01-29T05:20:18.080Z,8.70
2019-01-29T05:22:47.358Z,8.77
2019-01-29T05:25:16.907Z,8.87
2019-01-29T05:27:46.086Z,8.37
2019-01-29T05:30:20.484Z,7.97
2019-01-29T05:32:48.696Z,7.60
2019-01-29T05:35:18.000Z,8.50
2019-01-29T05:37:47.133Z,7.17
2019-01-29T05:40:17.573Z,7.77
2019-01-29T05:42:46.837Z,8.10
2019-01-29T05:45:17.509Z,8.40
2019-01-29T05:47:46.883Z,8.37
2019-01-29T05:50:16.541Z,8.77
2019-01-29T05:52:45.799Z,8.63
2019-01-29T05:55:15.327Z,8.83
2019-01-29T05:57:44.653Z,9.47
2019-01-29T06:00:19.562Z,10.03
2019-01-29T06:02:48.833Z,9.13
2019-01-29T06:05:18.342Z,9.90
2019-01-29T06:07:47.699Z,10.23
2019-01-29T06:10:18.207Z,10.40
2019-01-29T06:12:47.878Z,10.23
2019-01-29T06:15:18.494Z,9.93
2019-01-29T06:17:47.800Z,9.67
2019-01-29T06:20:19.683Z,10.20
2019-01-29T06:22:48.986Z,10.87
2019-01-29T06:25:18.340Z,10.77
2019-01-29T06:27:47.729Z,10.27
2019-01-29T06:30:18.158Z,11.33
2019-01-29T06:32:47.508Z,11.13
2019-01-29T06:35:17.460Z,9.73
2019-01-29T06:37:47.056Z,10.80
2019-01-29T06:40:18.927Z,11.27
2019-01-29T06:42:48.112Z,11.10
2019-01-29T06:45:18.011Z,10.20
2019-01-29T06:47:47.302Z,10.93
2019-01-29T06:50:18.762Z,11.77
2019-01-29T06:52:48.032Z,11.40
2019-01-29T06:55:19.919Z,12.07
2019-01-29T06:57:55.199Z,12.53
2019-01-29T07:00:22.603Z,11.20
2019-01-29T07:02:51.856Z,10.27
2019-01-29T07:05:21.178Z,11.57
2019-01-29T07:07:50.521Z,11.73
2019-01-29T07:10:20.386Z,10.80
2019-01-29T07:12:50.526Z,12.17
2019-01-29T07:15:39.443Z,12.27
2019-01-29T07:18:31.399Z,12.90
2019-01-29T07:21:01.497Z,10.87
2019-01-29T07:23:30.758Z,12.07
2019-01-29T07:25:59.998Z,12.70
2019-01-29T07:28:29.419Z,12.03
2019-01-29T07:30:58.732Z,12.07
2019-01-29T07:33:28.372Z,11.27
2019-01-29T07:35:57.670Z,12.53
2019-01-29T07:38:26.929Z,12.00
2019-01-29T07:40:56.213Z,13.23
2019-01-29T07:43:25.370Z,12.40
2019-01-29T07:45:54.544Z,12.07
2019-01-29T07:48:23.770Z,11.60
2019-01-29T07:50:53.052Z,12.67
2019-01-29T07:53:22.320Z,12.30
2019-01-29T07:55:51.556Z,12.00
2019-01-29T07:58:20.744Z,12.10
2019-01-29T08:00:49.997Z,11.27
2019-01-29T08:03:19.251Z,12.87
2019-01-29T08:05:48.432Z,12.30
2019-01-29T08:08:17.686Z,12.70
2019-01-29T08:10:46.851Z,13.67
2019-01-29T08:13:16.087Z,12.87
2019-01-29T08:15:45.342Z,12.13
2019-01-29T08:18:14.509Z,12.03
2019-01-29T08:20:43.697Z,11.83
2019-01-29T08:23:13.066Z,12.97
2019-01-29T08:25:47.618Z,13.37
2019-01-29T08:28:13.354Z,11.77
2019-01-29T08:30:42.608Z,11.33
2019-01-29T08:33:11.876Z,11.37
2019-01-29T08:35:41.637Z,10.27
2019-01-29T08:38:10.971Z,13.37
2019-01-29T08:40:40.711Z,11.80
2019-01-29T08:43:10.080Z,9.97
2019-01-29T08:45:39.374Z,10.10
2019-01-29T08:48:08.611Z,8.73
2019-01-29T08:50:37.869Z,10.23
2019-01-29T08:53:07.156Z,9.77
2019-01-29T08:55:36.426Z,8.50
2019-01-29T08:58:05.724Z,9.50
2019-01-29T09:00:35.004Z,8.50
2019-01-29T09:03:04.728Z,9.07
2019-01-29T09:05:33.992Z,9.30
2019-01-29T09:08:03.216Z,9.50
2019-01-29T09:10:32.445Z,9.43
2019-01-29T09:13:01.724Z,9.90
2019-01-29T09:15:31.712Z,9.83
2019-01-29T09:18:00.918Z,8.83
2019-01-29T09:20:30.131Z,9.13
2019-01-29T09:22:59.442Z,8.90
2019-01-29T09:25:28.654Z,8.57
2019-01-29T09:27:57.893Z,7.80
2019-01-29T09:30:27.160Z,8.07
2019-01-29T09:32:56.415Z,7.83
2019-01-29T09:35:25.686Z,8.27
2019-01-29T09:37:54.944Z,7.70
2019-01-29T09:40:24.098Z,7.10
2019-01-29T09:42:53.354Z,7.40
2019-01-29T09:45:23.101Z,6.53
2019-01-29T09:47:52.359Z,7.37
2019-01-29T09:50:22.586Z,6.83
2019-01-29T09:52:52.029Z,7.00
2019-01-29T09:55:28.967Z,6.80
2019-01-29T09:57:53.459Z,6.47
2019-01-29T10:00:26.014Z,6.50
2019-01-29T10:02:55.276Z,5.70
2019-01-29T10:05:24.968Z,6.27
2019-01-29T10:07:54.292Z,5.73
2019-01-29T10:10:23.535Z,5.50
2019-01-29T10:12:52.790Z,5.37
2019-01-29T10:15:25.715Z,5.37
2019-01-29T10:17:55.319Z,5.67
2019-01-29T10:20:24.755Z,5.20
2019-01-29T10:22:54.009Z,4.97
2019-01-29T10:25:23.302Z,5.83
2019-01-29T10:27:52.452Z,5.13
2019-01-29T10:30:21.994Z,5.50
2019-01-29T10:32:51.198Z,5.23
2019-01-29T10:35:21.387Z,5.47
2019-01-29T10:37:50.611Z,4.80
2019-01-29T10:40:21.408Z,5.00
2019-01-29T10:42:50.748Z,4.77
2019-01-29T10:45:20.845Z,5.37
2019-01-29T10:47:50.024Z,5.50
2019-01-29T10:50:21.445Z,5.33
2019-01-29T10:52:51.696Z,5.30
2019-01-29T10:55:20.849Z,4.70
2019-01-29T10:57:50.128Z,3.90
2019-01-29T11:00:25.287Z,4.63
2019-01-29T11:02:55.006Z,3.73
2019-01-29T11:05:24.356Z,3.70
2019-01-29T11:07:53.518Z,4.17
2019-01-29T11:10:23.004Z,3.93
2019-01-29T11:12:52.320Z,4.47
2019-01-29T11:15:24.482Z,4.37
2019-01-29T11:17:53.648Z,3.70
2019-01-29T11:20:23.079Z,3.10
2019-01-29T11:22:52.346Z,3.20
2019-01-29T11:25:24.238Z,2.80
2019-01-29T11:27:53.470Z,3.30
2019-01-29T11:30:24.981Z,3.77
2019-01-29T11:32:54.434Z,2.90
2019-01-29T11:35:23.758Z,3.33
2019-01-29T11:37:53.122Z,3.13
2019-01-29T11:40:24.531Z,2.67
2019-01-29T11:42:53.771Z,2.77
2019-01-29T11:45:31.529Z,2.77
2019-01-29T11:48:00.802Z,2.27
2019-01-29T11:50:30.333Z,2.03
2019-01-29T11:52:59.671Z,2.00
2019-01-29T11:55:28.861Z,2.07
2019-01-29T11:57:58.033Z,1.73
2019-01-29T12:00:43.412Z,1.90
2019-01-29T12:03:12.608Z,1.90
2019-01-29T12:05:41.981Z,2.37
2019-01-29T12:08:11.257Z,2.30
2019-01-29T12:10:40.557Z,2.43
2019-01-29T12:13:09.879Z,2.47
2019-01-29T12:15:39.145Z,3.70
2019-01-29T12:18:08.359Z,2.63
2019-01-29T12:20:37.732Z,2.67
2019-01-29T12:23:06.960Z,2.73
2019-01-29T12:25:36.283Z,2.77
2019-01-29T12:28:05.725Z,3.23
2019-01-29T12:30:35.253Z,4.10
2019-01-29T12:33:11.495Z,3.13
2019-01-29T12:35:40.737Z,2.60
2019-01-29T12:38:09.952Z,3.10
2019-01-29T12:40:39.297Z,3.20
2019-01-29T12:43:08.471Z,3.77
2019-01-29T12:45:37.741Z,3.43
2019-01-29T12:48:07.086Z,3.40
2019-01-29T12:50:37.206Z,3.67
2019-01-29T12:53:11.574Z,3.60
2019-01-29T12:55:40.807Z,3.63
2019-01-29T12:58:10.067Z,3.50
2019-01-29T13:00:43.470Z,3.77
2019-01-29T13:03:12.727Z,3.63
2019-01-29T13:05:41.964Z,3.50
2019-01-29T13:08:11.311Z,3.37
2019-01-29T13:10:59.692Z,3.87
2019-01-29T13:13:29.110Z,3.37
2019-01-29T13:15:58.371Z,4.17
2019-01-29T13:18:27.574Z,3.73
2019-01-29T13:20:56.858Z,3.87
2019-01-29T13:23:26.116Z,4.20
2019-01-29T13:25:55.295Z,3.80
2019-01-29T13:28:24.591Z,4.20
2019-01-29T13:30:53.870Z,3.63
2019-01-29T13:33:23.733Z,4.77
2019-01-29T13:35:53.004Z,4.63
2019-01-29T13:38:22.153Z,5.20
2019-01-29T13:40:51.403Z,5.13
2019-01-29T13:43:20.661Z,4.70
2019-01-29T13:45:49.934Z,4.53
2019-01-29T13:48:19.385Z,4.37
2019-01-29T13:50:55.804Z,5.03
2019-01-29T13:53:25.023Z,5.10
2019-01-29T13:55:54.266Z,4.80
2019-01-29T13:58:23.481Z,4.80
2019-01-29T14:00:52.634Z,5.40
2019-01-29T14:03:21.922Z,4.37
2019-01-29T14:05:51.191Z,5.00
2019-01-29T14:08:20.450Z,5.53
2019-01-29T14:10:49.761Z,5.30
2019-01-29T14:13:18.983Z,5.67
2019-01-29T14:15:53.167Z,5.10
2019-01-29T14:18:24.561Z,5.33
2019-01-29T14:20:53.923Z,5.70
2019-01-29T14:23:23.195Z,6.13
2019-01-29T14:25:52.462Z,4.90
2019-01-29T14:28:21.771Z,4.17
2019-01-29T14:30:51.037Z,4.43
2019-01-29T14:33:20.389Z,5.00
2019-01-29T14:35:49.727Z,4.53
2019-01-29T14:38:58.695Z,4.23
2019-01-29T14:41:27.982Z,4.80
2019-01-29T14:43:58.936Z,4.40
2019-01-29T14:46:28.188Z,4.30
2019-01-29T14:48:57.390Z,4.47
2019-01-29T14:51:26.669Z,4.30
2019-01-29T14:53:56.029Z,10.03
2019-01-29T14:56:25.355Z,4.63
2019-01-29T14:58:54.706Z,5.03
2019-01-29T15:01:24.160Z,5.47
2019-01-29T15:03:53.433Z,5.50
2019-01-29T15:06:22.790Z,5.77
2019-01-29T15:09:11.739Z,5.03
2019-01-29T15:11:41.008Z,5.97
2019-01-29T15:14:10.196Z,5.47
2019-01-29T15:16:49.815Z,6.33
2019-01-29T15:19:21.596Z,5.70
2019-01-29T15:21:50.900Z,6.17
2019-01-29T15:24:20.129Z,6.27
2019-01-29T15:26:49.465Z,6.87
2019-01-29T15:29:18.710Z,6.67
2019-01-29T15:31:48.155Z,8.37
2019-01-29T15:34:17.441Z,6.93
2019-01-29T15:36:46.698Z,7.70
2019-01-29T15:39:15.956Z,7.30
2019-01-29T15:41:45.158Z,6.80
2019-01-29T15:44:14.321Z,7.27
2019-01-29T15:46:43.570Z,7.70
2019-01-29T15:49:12.847Z,7.63
2019-01-29T15:51:42.104Z,8.03
2019-01-29T15:54:11.506Z,7.47
2019-01-29T15:56:40.747Z,8.00
2019-01-29T15:59:10.025Z,9.07
2019-01-29T16:01:39.163Z,9.53
2019-01-29T16:04:08.453Z,8.23
2019-01-29T16:06:37.715Z,7.53
2019-01-29T16:09:09.855Z,8.40
2019-01-29T16:11:39.466Z,8.43
2019-01-29T16:14:08.962Z,7.70
2019-01-29T16:16:38.227Z,7.87
2019-01-29T16:19:07.873Z,8.40
2019-01-29T16:21:37.025Z,7.80
2019-01-29T16:24:06.211Z,7.80
2019-01-29T16:26:35.490Z,7.57
2019-01-29T16:29:04.665Z,7.80
2019-01-29T16:31:33.981Z,8.60
2019-01-29T16:34:03.516Z,8.50
2019-01-29T16:36:32.771Z,8.83
2019-01-29T16:39:02.196Z,8.53
2019-01-29T16:41:31.491Z,8.83
2019-01-29T16:44:00.843Z,8.40
2019-01-29T16:46:30.155Z,9.97
2019-01-29T16:48:59.371Z,9.20
2019-01-29T16:51:28.700Z,9.53
2019-01-29T16:53:57.905Z,9.00
2019-01-29T16:56:27.260Z,9.13
2019-01-29T16:58:56.595Z,10.13
2019-01-29T17:01:26.006Z,10.10
2019-01-29T17:03:55.303Z,10.57
2019-01-29T17:06:24.621Z,10.33
2019-01-29T17:08:53.893Z,11.27
2019-01-29T17:11:23.158Z,11.33
2019-01-29T17:13:52.483Z,10.90
2019-01-29T17:16:21.711Z,11.70
2019-01-29T17:18:52.129Z,12.67
2019-01-29T17:21:21.398Z,10.97
2019-01-29T17:23:50.661Z,11.60
2019-01-29T17:26:19.854Z,13.00
2019-01-29T17:28:49.243Z,12.27
2019-01-29T17:31:18.609Z,12.30
2019-01-29T17:33:47.796Z,11.90
2019-01-29T17:36:17.111Z,14.30
2019-01-29T17:38:46.400Z,14.93
2019-01-29T17:41:15.776Z,16.20
2019-01-29T17:43:45.061Z,12.93
2019-01-29T17:46:14.552Z,12.43
2019-01-29T17:48:43.761Z,12.53
2019-01-29T17:51:13.069Z,16.67
2019-01-29T17:53:42.447Z,13.17
2019-01-29T17:56:11.770Z,11.77
2019-01-29T17:58:40.977Z,11.73
2019-01-29T18:01:10.314Z,12.13
2019-01-29T18:03:39.538Z,13.17
2019-01-29T18:06:08.745Z,14.63
2019-01-29T18:08:38.069Z,14.80
2019-01-29T18:11:07.427Z,13.53
2019-01-29T18:13:36.701Z,14.03
2019-01-29T18:16:05.939Z,14.43
2019-01-29T18:18:35.221Z,14.73
2019-01-29T18:21:04.506Z,16.20
2019-01-29T18:23:33.746Z,16.27
2019-01-29T18:26:03.042Z,18.37
2019-01-29T18:28:32.322Z,17.23
2019-01-29T18:31:01.631Z,18.37
2019-01-29T18:33:30.920Z,18.50
2019-01-29T18:36:00.209Z,19.60
2019-01-29T18:38:29.427Z,17.80
2019-01-29T18:40:58.795Z,16.20
2019-01-29T18:43:28.142Z,17.53
2019-01-29T18:45:57.501Z,17.30
2019-01-29T18:48:26.797Z,14.43
2019-01-29T18:50:56.161Z,14.00
2019-01-29T18:53:25.586Z,13.87
2019-01-29T18:55:55.128Z,14.00
2019-01-29T18:58:24.523Z,14.40
2019-01-29T19:00:54.932Z,13.97
2019-01-29T19:03:24.329Z,15.98
2019-01-29T19:05:53.603Z,14.53
2019-01-29T19:08:22.833Z,14.43
2019-01-29T19:10:52.192Z,14.50
2019-01-29T19:13:21.527Z,15.50
2019-01-29T19:15:50.806Z,15.53
2019-01-29T19:18:23.011Z,14.67
2019-01-29T19:20:52.377Z,14.83
2019-01-29T19:23:21.679Z,13.87
2019-01-29T19:25:52.448Z,15.13
2019-01-29T19:28:22.445Z,16.13
2019-01-29T19:30:51.834Z,15.03
2019-01-29T19:33:21.158Z,17.50
2019-01-29T19:35:50.490Z,14.27
2019-01-29T19:38:19.889Z,15.27
2019-01-29T19:40:49.236Z,14.73
2019-01-29T19:43:18.618Z,13.17
2019-01-29T19:45:47.899Z,12.70
2019-01-29T19:48:17.249Z,11.03
2019-01-29T19:50:46.604Z,10.83
2019-01-29T19:53:15.904Z,11.03
2019-01-29T19:55:45.191Z,10.60
2019-01-29T19:58:14.595Z,12.37
2019-01-29T20:00:44.231Z,12.60
2019-01-29T20:03:13.570Z,11.60
2019-01-29T20:05:42.858Z,12.67
2019-01-29T20:08:12.090Z,12.53
2019-01-29T20:10:41.403Z,14.20
2019-01-29T20:13:10.621Z,12.47
2019-01-29T20:15:40.122Z,13.73
2019-01-29T20:18:09.338Z,11.93
2019-01-29T20:20:40.209Z,12.73
2019-01-29T20:23:09.519Z,12.90
2019-01-29T20:25:38.901Z,12.77
2019-01-29T20:28:08.984Z,12.80
2019-01-29T20:30:39.610Z,12.70
2019-01-29T20:33:09.176Z,12.03
2019-01-29T20:35:38.446Z,12.63
2019-01-29T20:38:07.734Z,12.60
2019-01-29T20:40:37.103Z,11.70
2019-01-29T20:43:06.431Z,13.03
2019-01-29T20:45:35.763Z,12.13
2019-01-29T20:48:05.241Z,12.87
2019-01-29T20:50:35.626Z,12.70
2019-01-29T20:53:04.956Z,11.43
2019-01-29T20:55:34.330Z,11.70
2019-01-29T20:58:03.789Z,11.17
2019-01-29T21:00:35.059Z,12.47
2019-01-29T21:03:04.959Z,12.17
2019-01-29T21:05:34.331Z,12.47
2019-01-29T21:08:03.723Z,15.57
2019-01-29T21:10:33.069Z,12.13
2019-01-29T21:13:02.366Z,12.67
2019-01-29T21:15:38.022Z,11.33
2019-01-29T21:18:02.911Z,12.20
2019-01-29T21:20:32.547Z,13.13
2019-01-29T21:23:01.850Z,12.00
2019-01-29T21:25:31.147Z,12.63
2019-01-29T21:28:00.427Z,12.40
2019-01-29T21:30:31.863Z,13.33
2019-01-29T21:33:01.160Z,12.83
2019-01-29T21:35:30.379Z,12.43
2019-01-29T21:37:59.666Z,13.37
2019-01-29T21:40:28.923Z,13.30
2019-01-29T21:42:58.207Z,13.40
2019-01-29T21:45:27.701Z,12.73
2019-01-29T21:47:58.622Z,13.37
2019-01-29T21:50:29.573Z,13.50
2019-01-29T21:52:58.919Z,13.77
2019-01-29T21:55:28.405Z,15.47
2019-01-29T21:57:57.865Z,14.00
2019-01-29T22:00:41.219Z,14.30
2019-01-29T22:03:10.664Z,14.47
2019-01-29T22:05:40.020Z,14.90
2019-01-29T22:08:11.185Z,15.40
2019-01-29T22:10:41.059Z,15.13
2019-01-29T22:13:11.899Z,16.03
2019-01-29T22:15:41.351Z,15.37
2019-01-29T22:18:14.507Z,14.87
2019-01-29T22:20:43.900Z,14.60
2019-01-29T22:23:13.263Z,15.63
2019-01-29T22:25:42.549Z,17.80
2019-01-29T22:28:12.244Z,14.90
2019-01-29T22:30:43.200Z,15.47
2019-01-29T22:33:12.497Z,15.27
2019-01-29T22:35:41.861Z,15.27
2019-01-29T22:38:11.529Z,16.87
2019-01-29T22:40:40.809Z,14.43
2019-01-29T22:43:10.064Z,16.83
2019-01-29T22:45:39.470Z,19.03
2019-01-29T22:48:09.519Z,16.33
2019-01-29T22:50:40.901Z,17.03
2019-01-29T22:53:10.267Z,17.23
2019-01-29T22:55:39.565Z,16.37
2019-01-29T22:58:09.426Z,15.43
2019-01-29T23:01:11.056Z,15.70
2019-01-29T23:03:43.222Z,15.87
2019-01-29T23:06:23.634Z,16.60
2019-01-29T23:08:53.397Z,15.67
2019-01-29T23:11:22.634Z,15.43
2019-01-29T23:13:51.810Z,14.63
2019-01-29T23:16:21.208Z,15.13
2019-01-29T23:18:50.447Z,16.03
2019-01-29T23:21:19.718Z,14.23
2019-01-29T23:23:49.105Z,15.73
2019-01-29T23:26:18.444Z,14.33
2019-01-29T23:28:47.666Z,15.23
2019-01-29T23:31:16.869Z,14.50
2019-01-29T23:33:46.101Z,14.77
2019-01-29T23:36:15.372Z,14.80
2019-01-29T23:38:44.548Z,14.43
2019-01-29T23:41:13.803Z,14.07
2019-01-29T23:43:43.118Z,14.33
2019-01-29T23:46:12.421Z,13.47
2019-01-29T23:48:41.679Z,13.73
2019-01-29T23:51:10.903Z,14.07
2019-01-29T23:53:40.243Z,14.50
2019-01-29T23:56:09.551Z,13.57
2019-01-29T23:58:38.816Z,13.80
